Time;durP1;ratioP1;P1;durP2;ratioP2;P2;SDS_P1;SDS_P2;PMS_P1;PMS_P2;Temp;Humidity;BMP_temperature;BMP_pressure;BME280_temperature;BME280_humidity;BME280_pressure;Samples;Min_cycle;Max_cycle;Signal;HPM_P1;HPM_P2
2021/01/02 00:02:07;;;;;;;10.60;7.73;;;;;;;4.07;79.48;95767.16;5071708;28;20414;-59
2021/01/02 00:05:08;;;;;;;12.33;8.43;;;;;;;4.11;79.43;95763.13;5070113;28;20422;-62
2021/01/02 00:08:11;;;;;;;11.17;8.30;;;;;;;4.14;78.91;95770.53;5047563;28;20518;-65
2021/01/02 00:10:50;;;;;;;11.10;8.73;;;;;;;4.15;78.93;95766.94;5069803;28;20453;-62
2021/01/02 00:13:57;;;;;;;13.50;9.67;;;;;;;4.15;79.42;95763.53;5071259;28;20456;-64
2021/01/02 00:16:40;;;;;;;12.80;9.30;;;;;;;4.20;78.93;95767.13;5043632;28;20890;-64
2021/01/02 00:19:16;;;;;;;13.47;9.30;;;;;;;4.22;78.88;95772.94;5071642;28;20425;-61
2021/01/02 00:22:23;;;;;;;13.40;9.30;;;;;;;4.28;79.13;95763.53;5071466;28;20491;-62
2021/01/02 00:24:55;;;;;;;15.60;10.20;;;;;;;4.27;78.49;95764.53;5059642;28;20913;-63
2021/01/02 00:27:21;;;;;;;14.70;10.07;;;;;;;4.22;79.03;95760.94;5070722;28;20639;-65
2021/01/02 00:29:59;;;;;;;11.53;10.07;;;;;;;4.26;79.39;95756.94;5071776;28;20537;-59
2021/01/02 00:32:58;;;;;;;13.47;10.57;;;;;;;4.29;79.35;95761.75;5074937;28;20551;-58
2021/01/02 00:35:27;;;;;;;16.43;11.90;;;;;;;4.38;79.10;95758.72;5075099;28;20403;-63
2021/01/02 00:37:52;;;;;;;15.03;10.67;;;;;;;4.33;79.77;95763.72;5074578;28;20883;-63
2021/01/02 00:40:20;;;;;;;14.13;10.87;;;;;;;4.41;79.34;95763.53;5074372;28;20466;-63
2021/01/02 00:42:49;;;;;;;14.17;11.03;;;;;;;4.44;79.35;95763.09;5073942;28;20178;-63
2021/01/02 00:45:19;;;;;;;14.20;10.63;;;;;;;4.46;79.04;95757.69;5074580;28;20411;-57
2021/01/02 00:47:45;;;;;;;14.40;11.37;;;;;;;4.50;79.15;95761.50;5074039;28;20418;-58
2021/01/02 00:50:13;;;;;;;14.37;10.50;;;;;;;4.59;78.43;95763.69;5074125;28;20449;-63
2021/01/02 00:53:01;;;;;;;15.03;11.93;;;;;;;4.66;78.45;95764.47;5074328;28;20196;-57
2021/01/02 00:56:25;;;;;;;15.27;10.27;;;;;;;4.55;78.33;95764.31;5073960;28;20479;-57
2021/01/02 00:59:10;;;;;;;14.30;11.30;;;;;;;4.53;78.83;95763.72;5028649;28;20412;-58
2021/01/02 01:01:39;;;;;;;13.10;10.33;;;;;;;4.56;78.75;95758.91;5074084;28;20435;-63
2021/01/02 01:04:42;;;;;;;16.90;11.17;;;;;;;4.54;79.40;95763.50;5074238;28;20409;-58
2021/01/02 01:07:08;;;;;;;15.57;11.67;;;;;;;4.62;78.95;95763.28;5073311;28;20426;-58
2021/01/02 01:09:41;;;;;;;12.47;10.87;;;;;;;4.66;79.26;95766.28;5073845;28;21045;-63
2021/01/02 01:12:08;;;;;;;15.73;12.47;;;;;;;4.65;79.24;95778.50;5073850;28;20544;-63
2021/01/02 01:14:35;;;;;;;14.03;11.80;;;;;;;4.67;79.65;95775.69;5073590;28;20428;-59
2021/01/02 01:17:02;;;;;;;14.50;11.80;;;;;;;4.75;79.65;95770.25;5073171;28;20411;-59
2021/01/02 01:19:29;;;;;;;14.20;11.43;;;;;;;4.83;79.41;95785.66;5073633;28;20426;-63
2021/01/02 01:21:58;;;;;;;15.47;11.33;;;;;;;4.78;79.14;95772.47;5073613;28;20426;-59
2021/01/02 01:24:48;;;;;;;14.77;10.90;;;;;;;4.80;79.23;95784.25;5073990;28;20424;-58
2021/01/02 01:27:39;;;;;;;14.03;10.93;;;;;;;4.94;78.56;95790.22;5073062;28;20425;-59
2021/01/02 01:30:05;;;;;;;14.83;11.80;;;;;;;4.97;78.81;95790.63;5073034;28;20497;-63
2021/01/02 01:32:35;;;;;;;14.20;11.60;;;;;;;4.93;79.09;95786.81;5073649;28;20566;-63
2021/01/02 01:35:03;;;;;;;15.53;12.73;;;;;;;4.98;79.17;95786.22;5073841;28;20413;-63
2021/01/02 01:37:31;;;;;;;17.03;13.40;;;;;;;4.98;78.57;95789.59;5055397;28;20426;-64
2021/01/02 01:39:57;;;;;;;17.60;12.60;;;;;;;4.99;78.31;95793.81;5073129;28;20453;-58
2021/01/02 01:42:37;;;;;;;16.13;12.37;;;;;;;5.02;78.46;95792.59;5073651;28;20415;-58
2021/01/02 01:45:28;;;;;;;18.40;12.90;;;;;;;5.06;78.88;95801.59;5072952;28;20516;-63
2021/01/02 01:48:06;;;;;;;15.57;12.20;;;;;;;5.05;79.03;95795.59;5063879;28;20431;-63
2021/01/02 01:50:54;;;;;;;13.73;11.37;;;;;;;5.07;78.82;95792.81;5073513;28;20432;-63
2021/01/02 01:53:51;;;;;;;17.00;12.50;;;;;;;5.11;78.41;95794.78;5073103;28;20871;-63
2021/01/02 01:56:30;;;;;;;13.50;12.10;;;;;;;5.16;78.49;95792.34;5073351;28;20444;-66
2021/01/02 01:59:17;;;;;;;17.93;12.90;;;;;;;5.14;78.78;95789.19;5055392;28;20434;-64
2021/01/02 02:01:46;;;;;;;14.33;10.77;;;;;;;5.14;78.16;95794.38;5073643;28;20538;-64
2021/01/02 02:04:11;;;;;;;15.57;12.17;;;;;;;5.19;78.09;95785.94;5072709;28;20451;-64
2021/01/02 02:06:43;;;;;;;15.33;11.00;;;;;;;5.15;78.43;95785.56;5072268;28;20459;-59
2021/01/02 02:09:19;;;;;;;15.57;12.00;;;;;;;5.15;78.20;95779.53;5073010;28;20183;-59
2021/01/02 02:12:01;;;;;;;16.17;11.13;;;;;;;5.19;78.19;95778.13;5072961;28;20428;-63
2021/01/02 02:15:02;;;;;;;16.20;11.73;;;;;;;5.18;77.68;95790.34;5073326;28;20952;-58
2021/01/02 02:17:43;;;;;;;16.67;12.70;;;;;;;5.17;77.97;95785.34;5072516;28;20775;-58
2021/01/02 02:20:17;;;;;;;15.17;11.00;;;;;;;5.20;78.05;95790.13;5072907;28;20454;-64
2021/01/02 02:22:43;;;;;;;12.70;10.60;;;;;;;5.22;77.69;95783.72;5072961;28;20412;-63
2021/01/02 02:25:14;;;;;;;14.63;11.40;;;;;;;5.29;77.35;95791.50;5072570;28;20971;-59
2021/01/02 02:27:46;;;;;;;15.30;11.60;;;;;;;5.18;78.02;95781.75;5073064;28;20176;-59
2021/01/02 02:30:28;;;;;;;17.57;13.77;;;;;;;5.28;78.07;95795.13;5059230;28;20435;-58
2021/01/02 02:32:54;;;;;;;16.07;12.83;;;;;;;5.33;78.07;95786.69;5077244;28;20444;-63
2021/01/02 02:35:20;;;;;;;15.63;11.63;;;;;;;5.34;76.99;95786.50;5077064;28;20778;-59
2021/01/02 02:37:48;;;;;;;15.20;11.60;;;;;;;5.34;76.89;95794.31;5076755;28;20280;-58
2021/01/02 02:40:19;;;;;;;14.63;12.00;;;;;;;5.34;77.46;95791.69;5076687;28;20484;-59
2021/01/02 02:42:46;;;;;;;16.47;12.30;;;;;;;5.32;77.21;95793.72;5077415;28;20418;-59
2021/01/02 02:45:14;;;;;;;16.43;12.40;;;;;;;5.38;77.93;95792.84;5077166;28;20908;-63
2021/01/02 02:47:41;;;;;;;16.33;13.20;;;;;;;5.38;77.78;95785.03;5076501;28;20807;-59
2021/01/02 02:50:17;;;;;;;16.47;12.33;;;;;;;5.39;76.79;95784.06;5076398;28;20460;-59
2021/01/02 02:52:46;;;;;;;15.20;12.47;;;;;;;5.32;76.17;95790.28;5076947;28;20455;-64
2021/01/02 02:55:12;;;;;;;14.37;12.23;;;;;;;5.27;76.33;95782.31;5076402;28;20411;-64
2021/01/02 02:57:46;;;;;;;13.97;11.67;;;;;;;5.21;77.37;95789.94;5076039;28;20427;-58
2021/01/02 03:00:12;;;;;;;13.67;11.53;;;;;;;5.24;76.41;95789.53;5076578;28;20430;-58
2021/01/02 03:02:39;;;;;;;14.70;11.20;;;;;;;5.21;77.36;95782.13;5076371;28;20415;-58
2021/01/02 03:05:10;;;;;;;19.53;13.73;;;;;;;5.19;77.45;95791.97;5076568;28;20423;-58
2021/01/02 03:07:40;;;;;;;17.33;13.20;;;;;;;5.20;77.60;95787.53;5076311;28;20403;-58
2021/01/02 03:10:07;;;;;;;18.00;13.57;;;;;;;5.28;77.85;95792.50;5075901;28;20444;-63
2021/01/02 03:12:39;;;;;;;17.63;13.13;;;;;;;5.23;77.14;95793.16;5076497;28;20937;-63
2021/01/02 03:15:05;;;;;;;18.03;13.03;;;;;;;5.33;77.16;95786.69;5076533;28;20758;-58
2021/01/02 03:17:30;;;;;;;16.67;12.43;;;;;;;5.33;76.99;95795.28;5075580;28;20427;-63
2021/01/02 03:19:55;;;;;;;14.30;11.80;;;;;;;5.29;76.81;95799.31;5076189;28;20189;-63
2021/01/02 03:22:21;;;;;;;16.43;13.43;;;;;;;5.15;78.07;95793.38;5076223;28;20187;-59
2021/01/02 03:24:46;;;;;;;17.37;13.80;;;;;;;5.23;78.57;95792.34;5075955;28;20180;-58
2021/01/02 03:27:15;;;;;;;17.57;13.13;;;;;;;5.29;78.06;95791.50;5076062;28;20176;-64
2021/01/02 03:29:40;;;;;;;16.83;13.10;;;;;;;5.28;77.71;95795.13;5076043;28;20215;-58
2021/01/02 03:32:05;;;;;;;17.40;13.30;;;;;;;5.31;77.55;95788.72;5075768;28;20447;-62
2021/01/02 03:34:36;;;;;;;17.57;12.80;;;;;;;5.27;78.39;95785.72;5076027;28;20185;-58
2021/01/02 03:37:02;;;;;;;14.33;11.87;;;;;;;5.24;77.96;95783.50;5076020;28;20227;-63
2021/01/02 03:39:27;;;;;;;17.33;12.63;;;;;;;5.26;77.72;95778.91;5075650;28;20451;-63
2021/01/02 03:41:52;;;;;;;18.50;12.60;;;;;;;5.34;78.22;95772.66;5075626;28;20678;-58
2021/01/02 03:44:18;;;;;;;18.10;14.70;;;;;;;5.36;77.21;95776.66;5076219;28;20176;-63
2021/01/02 03:46:43;;;;;;;19.30;14.77;;;;;;;5.31;77.91;95775.69;5075007;28;20645;-59
2021/01/02 03:49:08;;;;;;;17.00;13.57;;;;;;;5.33;78.52;95774.44;5075700;28;20293;-58
2021/01/02 03:51:34;;;;;;;18.20;14.70;;;;;;;5.37;78.08;95765.22;5075751;28;20178;-59
2021/01/02 03:53:59;;;;;;;17.07;13.60;;;;;;;5.37;77.99;95769.63;5074479;28;20205;-59
2021/01/02 03:56:24;;;;;;;17.53;13.47;;;;;;;5.33;77.77;95765.88;5075350;28;20588;-64
2021/01/02 03:58:50;;;;;;;19.23;14.93;;;;;;;5.34;77.88;95759.63;5075146;28;20182;-58
2021/01/02 04:01:15;;;;;;;15.03;13.00;;;;;;;5.30;77.51;95761.84;5075642;28;20195;-62
2021/01/02 04:03:41;;;;;;;16.23;13.20;;;;;;;5.37;78.42;95756.59;5075690;28;20573;-58
2021/01/02 04:06:07;;;;;;;19.73;13.73;;;;;;;5.37;78.25;95760.03;5075238;28;20182;-63
2021/01/02 04:08:33;;;;;;;19.33;13.20;;;;;;;5.38;77.33;95760.81;5074412;28;20181;-63
2021/01/02 04:10:58;;;;;;;17.87;13.57;;;;;;;5.41;77.94;95761.22;5075370;28;20945;-58
2021/01/02 04:13:24;;;;;;;22.33;13.43;;;;;;;5.42;77.28;95764.63;5074836;28;20239;-57
2021/01/02 04:15:49;;;;;;;16.67;12.43;;;;;;;5.36;76.58;95766.25;5075407;28;20173;-63
2021/01/02 04:18:14;;;;;;;16.43;12.50;;;;;;;5.29;77.17;95767.28;5074829;28;20183;-59
2021/01/02 04:20:40;;;;;;;18.00;12.93;;;;;;;5.27;77.65;95772.69;5075120;28;20200;-58
2021/01/02 04:23:05;;;;;;;16.90;12.87;;;;;;;5.27;78.31;95772.69;5074620;28;20229;-58
2021/01/02 04:25:30;;;;;;;18.63;13.67;;;;;;;5.33;77.16;95769.25;5074743;28;20593;-63
2021/01/02 04:27:56;;;;;;;16.63;13.37;;;;;;;5.34;77.25;95772.66;5074249;28;20262;-63
2021/01/02 04:30:21;;;;;;;18.73;14.23;;;;;;;5.30;77.53;95771.47;5074695;28;20259;-59
2021/01/02 04:32:48;;;;;;;18.27;13.77;;;;;;;5.23;77.82;95772.31;5075306;28;20204;-59
2021/01/02 04:35:14;;;;;;;17.97;12.43;;;;;;;5.25;77.69;95777.31;5074855;28;20621;-63
2021/01/02 04:37:41;;;;;;;18.57;13.03;;;;;;;5.31;76.91;95773.84;5074635;28;20411;-58
2021/01/02 04:40:16;;;;;;;17.40;13.10;;;;;;;5.30;77.11;95779.28;5074188;28;20659;-58
2021/01/02 04:42:44;;;;;;;16.27;12.40;;;;;;;5.27;76.93;95780.50;5074952;28;20407;-59
2021/01/02 04:45:10;;;;;;;19.53;14.00;;;;;;;5.21;77.73;95783.94;5074823;28;20400;-59
2021/01/02 04:47:37;;;;;;;18.03;12.40;;;;;;;5.17;78.46;95780.94;5074377;28;20404;-58
2021/01/02 04:50:06;;;;;;;19.03;13.10;;;;;;;5.15;77.76;95774.34;5074381;28;20975;-58
2021/01/02 04:52:33;;;;;;;16.40;13.33;;;;;;;5.15;77.65;95784.75;5074075;28;20970;-59
2021/01/02 04:54:59;;;;;;;17.73;13.77;;;;;;;5.11;77.83;95783.56;5074570;28;20439;-58
2021/01/02 04:57:24;;;;;;;16.67;13.13;;;;;;;5.16;77.79;95781.16;5074131;28;20894;-58
2021/01/02 04:59:51;;;;;;;21.50;14.57;;;;;;;5.07;77.66;95779.78;5074286;28;20243;-63
2021/01/02 05:02:19;;;;;;;19.90;15.40;;;;;;;5.04;78.92;95782.78;5074122;28;20323;-64
2021/01/02 05:04:48;;;;;;;20.93;14.30;;;;;;;4.98;79.64;95775.81;5074317;28;20401;-63
2021/01/02 05:07:24;;;;;;;17.63;13.47;;;;;;;5.01;79.70;95778.81;5073955;28;20419;-63
2021/01/02 05:09:50;;;;;;;17.80;14.80;;;;;;;5.08;79.63;95791.78;5073779;28;20450;-63
2021/01/02 05:12:33;;;;;;;18.53;13.93;;;;;;;5.13;79.05;95784.16;5074153;28;20456;-59
2021/01/02 05:15:10;;;;;;;20.00;13.50;;;;;;;5.01;79.77;95788.41;5073685;28;20226;-63
2021/01/02 05:17:37;;;;;;;18.70;14.80;;;;;;;5.12;79.27;95790.38;5073313;28;20426;-58
2021/01/02 05:20:10;;;;;;;20.43;14.37;;;;;;;5.13;79.77;95800.56;5074284;28;20428;-58
2021/01/02 05:22:41;;;;;;;21.90;17.10;;;;;;;5.22;79.45;95793.31;5073389;28;20431;-58
2021/01/02 05:25:26;;;;;;;22.10;16.10;;;;;;;5.22;79.88;95795.94;5073674;28;20413;-62
2021/01/02 05:27:52;;;;;;;21.77;15.97;;;;;;;5.18;79.32;95789.56;5073610;28;20752;-63
2021/01/02 05:30:20;;;;;;;24.23;16.53;;;;;;;5.17;79.49;95786.16;5073703;28;20431;-63
2021/01/02 05:33:00;;;;;;;23.70;15.73;;;;;;;5.21;80.20;95791.75;5073284;28;20463;-58
2021/01/02 05:35:28;;;;;;;24.30;17.17;;;;;;;5.20;80.19;95790.13;5073170;28;20639;-63
2021/01/02 05:37:54;;;;;;;28.03;17.80;;;;;;;5.25;79.72;95785.13;5073395;28;20402;-58
2021/01/02 05:40:53;;;;;;;23.77;16.43;;;;;;;5.29;80.00;95793.31;5073768;28;20514;-58
2021/01/02 05:43:21;;;;;;;23.27;17.00;;;;;;;5.28;79.42;95789.91;5073697;28;20166;-59
2021/01/02 05:45:47;;;;;;;26.37;17.17;;;;;;;5.18;80.07;95795.53;5074030;28;20404;-63
2021/01/02 05:48:15;;;;;;;33.50;19.27;;;;;;;5.00;81.29;95800.63;5073218;28;20407;-58
2021/01/02 05:50:42;;;;;;;26.40;17.23;;;;;;;5.08;81.10;95803.00;5072966;28;20475;-63
2021/01/02 05:53:17;;;;;;;30.43;18.70;;;;;;;5.14;80.76;95807.41;5072836;28;20460;-58
2021/01/02 05:55:44;;;;;;;24.20;15.73;;;;;;;5.18;81.03;95794.78;5073630;28;20888;-63
2021/01/02 05:58:18;;;;;;;35.10;19.50;;;;;;;5.18;81.20;95799.97;5073040;28;20414;-63
2021/01/02 06:00:45;;;;;;;29.73;17.87;;;;;;;5.24;80.95;95799.13;5073315;28;20446;-62
2021/01/02 06:03:24;;;;;;;31.53;18.20;;;;;;;5.19;80.65;95797.16;5072511;28;20491;-62
2021/01/02 06:05:57;;;;;;;31.03;18.40;;;;;;;5.27;81.09;95797.94;5053430;28;20488;-58
2021/01/02 06:08:32;;;;;;;28.30;17.70;;;;;;;5.31;80.48;95791.31;5065582;28;20926;-59
2021/01/02 06:11:04;;;;;;;33.20;18.93;;;;;;;5.25;81.15;95787.72;5073212;28;20432;-58
2021/01/02 06:13:33;;;;;;;33.00;19.03;;;;;;;5.11;80.74;95786.16;5072910;28;20461;-62
2021/01/02 06:16:00;;;;;;;26.47;16.80;;;;;;;4.84;81.40;95795.03;5073365;28;20492;-63
2021/01/02 06:18:31;;;;;;;30.90;18.40;;;;;;;4.87;82.07;95792.84;5072652;28;20514;-63
2021/01/02 06:21:00;;;;;;;33.73;18.23;;;;;;;5.02;81.72;95792.59;5072462;28;20447;-63
2021/01/02 06:23:25;;;;;;;30.20;18.33;;;;;;;5.08;81.17;95783.97;5073172;28;20415;-63
2021/01/02 06:25:53;;;;;;;30.60;16.70;;;;;;;5.04;81.86;95794.00;5073572;28;20425;-59
2021/01/02 06:28:19;;;;;;;36.43;19.07;;;;;;;5.11;81.68;95796.56;5072592;28;20220;-59
2021/01/02 06:30:44;;;;;;;29.40;17.40;;;;;;;5.04;81.78;95798.41;5073150;28;20793;-63
2021/01/02 06:33:14;;;;;;;27.93;17.07;;;;;;;5.09;81.79;95798.59;5072954;28;20447;-58
2021/01/02 06:35:40;;;;;;;31.17;18.10;;;;;;;5.05;81.22;95797.41;5072830;28;20180;-59
2021/01/02 06:38:07;;;;;;;24.70;15.30;;;;;;;5.02;81.73;95806.41;5072800;28;20404;-58
2021/01/02 06:40:41;;;;;;;24.70;16.90;;;;;;;5.07;81.28;95801.38;5072931;28;20548;-63
2021/01/02 06:43:11;;;;;;;25.70;16.20;;;;;;;5.10;81.11;95787.97;5073395;28;20409;-63
2021/01/02 06:45:39;;;;;;;26.87;16.50;;;;;;;5.11;81.00;95791.38;5072552;28;20826;-59
2021/01/02 06:48:17;;;;;;;26.30;16.43;;;;;;;5.13;80.89;95791.97;5072585;28;20422;-59
2021/01/02 06:51:03;;;;;;;26.43;16.40;;;;;;;5.12;81.21;95795.59;5052924;28;20428;-63
2021/01/02 06:53:35;;;;;;;27.40;15.27;;;;;;;5.13;81.21;95790.16;5053123;28;20467;-63
2021/01/02 06:56:10;;;;;;;23.50;15.63;;;;;;;5.03;81.47;95791.59;5056200;28;20417;-58
2021/01/02 06:58:47;;;;;;;22.23;14.03;;;;;;;5.10;81.56;95797.59;5072456;28;20411;-59
2021/01/02 07:01:15;;;;;;;23.13;14.93;;;;;;;5.12;81.11;95799.00;5072794;28;20817;-58
2021/01/02 07:03:44;;;;;;;25.13;15.23;;;;;;;5.12;80.60;95801.59;5072531;28;20426;-63
2021/01/02 07:06:18;;;;;;;22.27;14.43;;;;;;;5.00;80.52;95812.84;5072729;28;20783;-59
2021/01/02 07:08:55;;;;;;;22.50;15.20;;;;;;;4.97;80.68;95805.44;5072622;28;20944;-62
2021/01/02 07:11:38;;;;;;;20.67;13.53;;;;;;;4.89;81.05;95811.66;5072837;28;20427;-58
2021/01/02 07:14:12;;;;;;;20.87;13.57;;;;;;;4.93;80.48;95820.66;5073118;28;20464;-58
2021/01/02 07:16:58;;;;;;;19.70;13.77;;;;;;;4.97;80.99;95827.06;5076051;28;20427;-58
2021/01/02 07:19:24;;;;;;;20.67;13.97;;;;;;;5.02;81.05;95823.81;5076038;28;20475;-59
2021/01/02 07:22:04;;;;;;;21.80;14.93;;;;;;;4.97;81.45;95826.25;5076502;28;20415;-58
2021/01/02 07:24:38;;;;;;;23.50;14.90;;;;;;;4.93;80.63;95822.44;5076463;28;20620;-58
2021/01/02 07:27:12;;;;;;;23.30;16.00;;;;;;;4.93;81.20;95820.66;5076049;28;20406;-58
2021/01/02 07:29:49;;;;;;;23.50;15.40;;;;;;;4.93;81.21;95825.84;5057159;28;20818;-62
2021/01/02 07:32:26;;;;;;;19.70;14.07;;;;;;;4.73;81.38;95827.69;5076350;28;20455;-62
2021/01/02 07:34:58;;;;;;;21.70;13.97;;;;;;;4.79;81.70;95824.28;5056218;28;20411;-63
2021/01/02 07:37:27;;;;;;;21.97;14.80;;;;;;;4.75;82.16;95822.28;5056127;28;20409;-59
2021/01/02 07:40:14;;;;;;;19.33;12.97;;;;;;;4.70;82.04;95817.69;5075993;28;20434;-63
2021/01/02 07:42:51;;;;;;;19.53;13.80;;;;;;;4.65;82.24;95812.31;5075566;28;20881;-58
2021/01/02 07:45:22;;;;;;;20.70;14.03;;;;;;;4.74;82.25;95815.50;5076021;28;20766;-63
2021/01/02 07:47:53;;;;;;;20.50;14.03;;;;;;;4.82;81.85;95810.88;5075182;28;20765;-58
2021/01/02 07:50:21;;;;;;;23.53;14.93;;;;;;;4.90;81.88;95818.47;5075527;28;20455;-63
2021/01/02 07:52:50;;;;;;;23.27;14.47;;;;;;;4.94;81.54;95822.28;5075412;28;20856;-63
2021/01/02 07:55:16;;;;;;;21.10;13.63;;;;;;;4.81;81.72;95829.28;5075243;28;20510;-58
2021/01/02 07:57:42;;;;;;;23.30;15.03;;;;;;;4.90;81.73;95821.06;5075482;28;20410;-63
2021/01/02 08:00:09;;;;;;;21.27;14.60;;;;;;;4.79;81.38;95824.28;5075170;28;20448;-58
2021/01/02 08:02:40;;;;;;;20.57;14.67;;;;;;;4.77;82.37;95825.50;5075726;28;20184;-63
2021/01/02 08:05:17;;;;;;;19.07;12.77;;;;;;;4.72;82.86;95839.13;5075294;28;20434;-58
2021/01/02 08:07:53;;;;;;;21.10;14.50;;;;;;;4.76;82.22;95832.50;5075393;28;20404;-63
2021/01/02 08:10:19;;;;;;;20.47;14.30;;;;;;;4.80;81.69;95831.09;5075094;28;20447;-57
2021/01/02 08:12:46;;;;;;;23.93;14.63;;;;;;;4.80;81.70;95833.69;5074861;28;20529;-59
2021/01/02 08:15:14;;;;;;;25.37;16.00;;;;;;;4.85;81.79;95831.31;5075455;28;20397;-62
2021/01/02 08:17:40;;;;;;;24.00;14.80;;;;;;;4.91;81.43;95829.69;5074656;28;20431;-58
2021/01/02 08:20:07;;;;;;;23.93;15.20;;;;;;;4.83;81.13;95830.69;5075108;28;20484;-58
2021/01/02 08:22:37;;;;;;;24.07;14.87;;;;;;;4.89;81.56;95829.09;5057385;28;20443;-63
2021/01/02 08:25:03;;;;;;;24.07;14.80;;;;;;;4.88;81.74;95820.47;5073978;28;20416;-64
2021/01/02 08:27:33;;;;;;;28.60;16.40;;;;;;;5.00;81.83;95820.66;5074409;28;20418;-58
2021/01/02 08:30:03;;;;;;;22.30;15.23;;;;;;;5.03;81.39;95825.44;5074724;28;20725;-62
2021/01/02 08:32:30;;;;;;;21.60;13.80;;;;;;;5.08;81.38;95830.84;5074618;28;20455;-63
2021/01/02 08:34:57;;;;;;;23.90;15.40;;;;;;;4.94;82.13;95830.06;5074895;28;20410;-58
2021/01/02 08:37:23;;;;;;;21.97;14.97;;;;;;;4.98;81.66;95827.88;5074248;28;20444;-59
2021/01/02 08:40:06;;;;;;;22.83;16.00;;;;;;;5.06;80.96;95825.03;5074719;28;20448;-63
2021/01/02 08:42:39;;;;;;;20.03;14.73;;;;;;;5.16;80.89;95828.78;5074914;28;20170;-63
2021/01/02 08:45:09;;;;;;;24.50;14.60;;;;;;;5.14;79.91;95828.22;5074637;28;20406;-62
2021/01/02 08:47:36;;;;;;;23.57;14.70;;;;;;;5.15;80.96;95826.41;5074115;28;20417;-57
2021/01/02 08:50:12;;;;;;;25.50;15.37;;;;;;;5.18;80.65;95826.00;5074575;28;20475;-58
2021/01/02 08:52:39;;;;;;;20.80;14.87;;;;;;;5.16;80.58;95828.03;5073919;28;21056;-62
2021/01/02 08:55:16;;;;;;;25.50;15.20;;;;;;;5.13;80.39;95818.81;5056739;28;20450;-62
2021/01/02 08:57:44;;;;;;;19.60;13.40;;;;;;;5.19;80.51;95819.78;5074095;28;20929;-58
2021/01/02 09:00:20;;;;;;;18.27;13.40;;;;;;;5.20;80.59;95818.78;5074405;28;20779;-58
2021/01/02 09:02:51;;;;;;;23.97;15.73;;;;;;;5.23;80.39;95819.19;5074130;28;20438;-59
2021/01/02 09:05:25;;;;;;;22.93;14.27;;;;;;;5.27;79.40;95829.19;5055649;28;20500;-62
2021/01/02 09:07:54;;;;;;;24.77;14.20;;;;;;;5.29;79.46;95833.16;5073762;28;20469;-62
2021/01/02 09:10:30;;;;;;;21.20;14.40;;;;;;;5.19;79.68;95819.78;5073912;28;20500;-62
2021/01/02 09:13:02;;;;;;;20.47;13.70;;;;;;;5.14;80.21;95836.03;5073829;28;20492;-58
2021/01/02 09:15:48;;;;;;;22.50;13.97;;;;;;;4.87;81.08;95833.69;5070703;28;20482;-62
2021/01/02 09:18:34;;;;;;;22.47;14.10;;;;;;;4.90;80.67;95833.28;5073769;28;20411;-59
2021/01/02 09:21:05;;;;;;;24.27;15.47;;;;;;;4.96;80.69;95837.69;5074040;28;20439;-59
2021/01/02 09:23:36;;;;;;;21.60;14.77;;;;;;;4.75;81.85;95841.31;5074177;28;20898;-62
2021/01/02 09:26:16;;;;;;;23.60;15.00;;;;;;;4.52;83.01;95845.31;5073288;28;20539;-58
2021/01/02 09:28:43;;;;;;;20.20;14.27;;;;;;;4.62;82.58;95846.50;5073587;28;20420;-60
2021/01/02 09:31:08;;;;;;;24.17;15.07;;;;;;;4.68;82.84;95840.50;5073588;28;20428;-63
2021/01/02 09:33:33;;;;;;;23.80;13.40;;;;;;;4.79;82.56;95833.91;5073406;28;20822;-59
2021/01/02 09:35:59;;;;;;;27.40;16.60;;;;;;;4.70;82.34;95835.09;5073653;28;20621;-63
2021/01/02 09:38:24;;;;;;;22.30;14.87;;;;;;;4.58;82.80;95842.75;5073275;28;20174;-62
2021/01/02 09:40:50;;;;;;;25.07;15.40;;;;;;;4.64;82.89;95841.91;5073269;28;20204;-59
2021/01/02 09:43:16;;;;;;;20.00;14.60;;;;;;;4.80;82.22;95838.88;5073618;28;20524;-62
2021/01/02 09:45:42;;;;;;;24.23;16.13;;;;;;;4.87;81.58;95839.69;5073658;28;20206;-62
2021/01/02 09:48:09;;;;;;;26.00;15.70;;;;;;;4.90;81.98;95847.09;5072809;28;20917;-59
2021/01/02 09:50:35;;;;;;;26.00;16.33;;;;;;;4.87;82.56;95849.31;5073654;28;20434;-59
2021/01/02 09:53:02;;;;;;;21.97;15.67;;;;;;;4.81;81.90;95850.91;5073315;28;20542;-62
2021/01/02 09:55:27;;;;;;;20.67;15.10;;;;;;;4.87;82.08;95865.69;5073061;28;20185;-60
2021/01/02 09:57:53;;;;;;;24.20;15.17;;;;;;;4.97;80.96;95865.28;5073119;28;20411;-58
2021/01/02 10:00:20;;;;;;;22.60;14.80;;;;;;;5.12;80.84;95868.47;5073030;28;20212;-59
2021/01/02 10:02:45;;;;;;;22.33;14.60;;;;;;;5.14;80.94;95869.06;5072941;28;20176;-63
2021/01/02 10:05:19;;;;;;;21.33;14.13;;;;;;;5.24;80.25;95867.63;5073460;28;20415;-60
2021/01/02 10:07:45;;;;;;;22.03;15.13;;;;;;;5.21;80.17;95852.44;5072972;28;20175;-59
2021/01/02 10:10:11;;;;;;;18.87;14.43;;;;;;;5.12;79.84;95855.47;5073300;28;20441;-59
2021/01/02 10:12:37;;;;;;;24.07;14.80;;;;;;;5.21;80.43;95860.25;5073210;28;20459;-59
2021/01/02 10:15:04;;;;;;;21.47;15.20;;;;;;;5.17;78.87;95860.84;5072426;28;20429;-59
2021/01/02 10:17:30;;;;;;;21.63;15.10;;;;;;;5.10;79.44;95857.47;5072625;28;20711;-59
2021/01/02 10:19:56;;;;;;;21.57;15.23;;;;;;;5.11;79.71;95856.44;5073401;28;20431;-63
2021/01/02 10:22:22;;;;;;;18.80;14.20;;;;;;;5.21;79.44;95851.63;5073401;28;20252;-63
2021/01/02 10:24:52;;;;;;;17.33;12.63;;;;;;;5.08;79.75;95851.66;5073296;28;20423;-59
2021/01/02 10:27:19;;;;;;;19.73;15.17;;;;;;;5.19;79.19;95849.22;5072963;28;20752;-59
2021/01/02 10:29:46;;;;;;;21.27;14.50;;;;;;;5.32;79.03;95839.78;5072342;28;20444;-62
2021/01/02 10:32:13;;;;;;;27.40;19.70;;;;;;;5.33;79.13;95836.97;5072922;28;20476;-58
2021/01/02 10:34:40;;;;;;;21.70;16.80;;;;;;;5.45;78.67;95826.72;5073233;28;20890;-58
2021/01/02 10:37:06;;;;;;;18.40;15.03;;;;;;;5.39;77.83;95824.91;5072846;28;20453;-63
2021/01/02 10:39:31;;;;;;;20.37;14.20;;;;;;;5.46;77.10;95821.28;5072783;28;20523;-62
2021/01/02 10:41:56;;;;;;;20.90;15.00;;;;;;;5.54;77.82;95826.28;5072507;28;20235;-59
2021/01/02 10:44:22;;;;;;;17.67;13.67;;;;;;;5.67;76.89;95818.38;5072955;28;20168;-58
2021/01/02 10:46:50;;;;;;;19.27;13.03;;;;;;;5.68;76.58;95822.59;5072316;28;20691;-59
2021/01/02 10:49:18;;;;;;;17.80;13.03;;;;;;;5.69;76.55;95808.53;5074422;28;20209;-62
2021/01/02 10:51:45;;;;;;;17.50;12.63;;;;;;;5.57;75.52;95805.00;5076730;28;20927;-59
2021/01/02 10:54:12;;;;;;;18.37;13.37;;;;;;;5.68;76.26;95798.31;5076790;28;20950;-62
2021/01/02 10:56:44;;;;;;;16.53;12.47;;;;;;;5.76;75.40;95803.31;5076417;28;20903;-59
2021/01/02 10:59:09;;;;;;;17.00;13.10;;;;;;;5.74;75.83;95800.13;5077192;28;20788;-59
2021/01/02 11:01:43;;;;;;;17.80;12.93;;;;;;;5.74;75.62;95800.88;5096959;28;20416;-62
2021/01/02 11:04:09;;;;;;;18.40;13.10;;;;;;;5.84;75.37;95792.66;5075788;28;20243;-65
2021/01/02 11:06:40;;;;;;;19.50;13.60;;;;;;;5.85;74.94;95789.06;5075600;28;20508;-68
2021/01/02 11:09:08;;;;;;;16.10;13.20;;;;;;;5.91;74.62;95775.97;5075891;28;20561;-66
2021/01/02 11:11:33;;;;;;;16.57;12.30;;;;;;;5.91;75.08;95770.75;5076791;28;20420;-68
2021/01/02 11:13:59;;;;;;;17.53;12.70;;;;;;;5.93;74.71;95767.94;5072608;28;20466;-68
2021/01/02 11:16:32;;;;;;;20.07;14.07;;;;;;;5.96;74.17;95772.75;5072198;28;20182;-67
2021/01/02 11:18:58;;;;;;;18.27;13.33;;;;;;;5.98;73.82;95763.69;5071712;28;20200;-67
2021/01/02 11:21:23;;;;;;;17.37;12.50;;;;;;;5.84;74.50;95759.56;5072202;28;20424;-67
2021/01/02 11:23:49;;;;;;;19.40;13.80;;;;;;;5.69;74.40;95751.22;5072301;28;20981;-70
2021/01/02 11:26:14;;;;;;;17.73;12.80;;;;;;;5.57;75.39;95747.69;5072219;28;20181;-67
2021/01/02 11:28:41;;;;;;;15.97;12.03;;;;;;;5.58;75.31;95753.72;5071559;28;20340;-69
2021/01/02 11:31:06;;;;;;;18.80;14.70;;;;;;;5.76;74.45;95748.59;5072340;28;20293;-68
2021/01/02 11:33:31;;;;;;;15.00;12.30;;;;;;;5.72;74.86;95750.00;5072515;28;21062;-67
2021/01/02 11:35:57;;;;;;;15.77;12.70;;;;;;;5.58;75.54;95745.88;5071951;28;20222;-67
2021/01/02 11:38:22;;;;;;;17.90;12.97;;;;;;;5.65;75.17;95757.06;5071598;28;20193;-67
2021/01/02 11:40:51;;;;;;;18.87;12.60;;;;;;;5.71;74.64;95754.41;5072003;28;20202;-66
2021/01/02 11:43:17;;;;;;;15.97;12.67;;;;;;;5.65;74.95;95764.88;5072481;28;20172;-66